Time;durP1;ratioP1;P1;durP2;ratioP2;P2;SDS_P1;SDS_P2;PMS_P1;PMS_P2;Temp;Humidity;BMP_temperature;BMP_pressure;BME280_temperature;BME280_humidity;BME280_pressure;Samples;Min_cycle;Max_cycle;Signal;HPM_P1;HPM_P2
2023/08/23 00:00:13;;;;;;;9.67;8.77;;;18.70;1.00;;;;;;5029762;28;20849;-76
2023/08/23 00:02:42;;;;;;;10.30;9.20;;;18.70;1.00;;;;;;5027947;28;20481;-77
2023/08/23 00:05:13;;;;;;;11.27;10.17;;;18.60;1.00;;;;;;5030021;28;20471;-77
2023/08/23 00:07:39;;;;;;;10.17;9.00;;;18.60;1.00;;;;;;5029705;28;21645;-77
2023/08/23 00:10:08;;;;;;;10.43;9.40;;;18.60;1.00;;;;;;5028698;28;20496;-75
2023/08/23 00:12:36;;;;;;;11.53;9.67;;;18.60;1.00;;;;;;5028174;28;20516;-78
2023/08/23 00:15:03;;;;;;;9.67;8.77;;;18.60;1.00;;;;;;5028986;28;20476;-76
2023/08/23 00:17:30;;;;;;;11.97;10.63;;;18.60;1.00;;;;;;5028633;28;22029;-77
2023/08/23 00:20:00;;;;;;;10.70;9.60;;;18.60;1.00;;;;;;5032136;28;20464;-77
2023/08/23 00:22:27;;;;;;;11.70;9.90;;;18.70;1.00;;;;;;5030028;28;20467;-77
2023/08/23 00:24:55;;;;;;;11.17;9.57;;;18.70;1.00;;;;;;5029245;28;20567;-76
2023/08/23 00:27:23;;;;;;;13.27;9.60;;;18.70;1.00;;;;;;5031697;28;20883;-77
2023/08/23 00:29:51;;;;;;;10.77;9.67;;;18.70;1.00;;;;;;5022766;28;20455;-76
2023/08/23 00:32:19;;;;;;;10.80;9.70;;;18.70;1.00;;;;;;5029639;28;20496;-75
2023/08/23 00:34:46;;;;;;;10.43;9.43;;;18.60;1.00;;;;;;5032774;28;20550;-77
2023/08/23 00:37:13;;;;;;;11.17;9.87;;;18.60;1.00;;;;;;5029493;28;20533;-76
2023/08/23 00:39:40;;;;;;;10.83;9.73;;;18.50;1.00;;;;;;5031530;28;20468;-74
2023/08/23 00:42:07;;;;;;;11.67;10.60;;;18.50;1.00;;;;;;5029328;28;20475;-76
2023/08/23 00:44:34;;;;;;;10.93;9.93;;;18.40;1.00;;;;;;5032947;28;20454;-76
2023/08/23 00:47:05;;;;;;;11.17;10.07;;;18.40;1.00;;;;;;5029203;28;20470;-76
2023/08/23 00:49:34;;;;;;;10.70;9.70;;;18.40;1.00;;;;;;5028588;28;21011;-76
2023/08/23 00:52:04;;;;;;;10.60;9.70;;;18.40;1.00;;;;;;5030697;28;20482;-77
2023/08/23 00:54:31;;;;;;;10.93;9.60;;;18.40;1.00;;;;;;5026548;28;21246;-77
2023/08/23 00:57:01;;;;;;;13.23;10.37;;;18.40;1.00;;;;;;5028332;28;20509;-76
2023/08/23 00:59:30;;;;;;;10.77;9.67;;;18.40;1.00;;;;;;5031564;28;20948;-75
2023/08/23 01:01:57;;;;;;;10.50;9.47;;;18.40;1.00;;;;;;5028186;28;20484;-78
2023/08/23 01:04:25;;;;;;;9.97;8.90;;;18.40;1.00;;;;;;5031189;28;20428;-77
2023/08/23 01:07:03;;;;;;;10.27;9.30;;;18.40;1.00;;;;;;5014868;28;20529;-75
2023/08/23 01:09:41;;;;;;;10.33;9.00;;;18.40;1.00;;;;;;5030986;28;20549;-77
2023/08/23 01:12:16;;;;;;;9.90;8.90;;;18.40;1.00;;;;;;5030821;28;20475;-77
2023/08/23 01:14:52;;;;;;;11.47;9.43;;;18.40;1.00;;;;;;5025905;28;20491;-75
2023/08/23 01:17:21;;;;;;;10.57;9.57;;;18.40;1.00;;;;;;5027041;28;20456;-77
2023/08/23 01:19:51;;;;;;;9.60;8.70;;;18.40;1.00;;;;;;5013458;28;20824;-75
2023/08/23 01:22:22;;;;;;;9.03;8.23;;;18.40;1.00;;;;;;5019143;28;20477;-75
2023/08/23 01:24:51;;;;;;;10.10;9.20;;;18.30;1.00;;;;;;5018004;28;20531;-75
2023/08/23 01:27:18;;;;;;;8.57;7.77;;;18.30;1.00;;;;;;5028924;28;20469;-76
2023/08/23 01:29:46;;;;;;;10.00;9.07;;;18.30;1.00;;;;;;5026755;28;20459;-76
2023/08/23 01:32:31;;;;;;;9.20;8.30;;;18.20;1.00;;;;;;5025756;28;20921;-76
2023/08/23 01:35:03;;;;;;;9.40;8.50;;;18.20;1.00;;;;;;5030278;28;20465;-77
2023/08/23 01:37:33;;;;;;;9.73;8.83;;;18.20;1.00;;;;;;5018662;28;20957;-77
2023/08/23 01:40:03;;;;;;;9.90;9.10;;;18.20;1.00;;;;;;5026709;28;20460;-76
2023/08/23 01:42:32;;;;;;;9.77;8.87;;;18.10;1.00;;;;;;5028869;28;20476;-76
2023/08/23 01:45:02;;;;;;;10.30;9.27;;;18.10;1.00;;;;;;5027602;28;20438;-77
2023/08/23 01:47:29;;;;;;;9.93;8.90;;;18.10;1.00;;;;;;5030140;28;20456;-75
2023/08/23 01:49:56;;;;;;;9.37;8.40;;;18.10;1.00;;;;;;5029214;28;21080;-80
2023/08/23 01:52:23;;;;;;;10.37;8.30;;;18.10;1.00;;;;;;5029130;28;20479;-77
2023/08/23 01:54:50;;;;;;;10.20;8.63;;;18.10;1.00;;;;;;5008516;28;20517;-76
2023/08/23 01:57:21;;;;;;;10.07;9.00;;;18.20;1.00;;;;;;5023381;28;20462;-76
2023/08/23 01:59:49;;;;;;;10.60;9.77;;;18.10;1.00;;;;;;5027779;28;21110;-75
2023/08/23 02:02:17;;;;;;;9.50;8.43;;;18.20;1.00;;;;;;5031445;28;20479;-77
2023/08/23 02:04:44;;;;;;;10.97;9.20;;;18.10;1.00;;;;;;5030100;28;20515;-77
2023/08/23 02:07:11;;;;;;;10.50;9.60;;;18.10;1.00;;;;;;5028533;28;20614;-78
2023/08/23 02:09:38;;;;;;;9.87;8.83;;;18.10;1.00;;;;;;5025957;28;20854;-77
2023/08/23 02:12:07;;;;;;;9.43;8.60;;;18.00;1.00;;;;;;5027641;28;20933;-77
2023/08/23 02:14:36;;;;;;;9.37;8.50;;;18.00;1.00;;;;;;5029135;28;20494;-75
2023/08/23 02:17:03;;;;;;;12.30;9.63;;;18.00;1.00;;;;;;5029548;28;20877;-77
2023/08/23 02:19:30;;;;;;;11.23;9.57;;;17.90;1.00;;;;;;5019226;28;20479;-76
2023/08/23 02:21:57;;;;;;;9.90;9.00;;;17.90;1.00;;;;;;5027656;28;20474;-77
2023/08/23 02:24:25;;;;;;;13.43;9.30;;;17.90;1.00;;;;;;5027009;28;20554;-75
2023/08/23 02:26:52;;;;;;;9.90;8.90;;;17.90;1.00;;;;;;5005969;28;20605;-75
2023/08/23 02:29:19;;;;;;;10.90;9.80;;;17.80;1.00;;;;;;5007699;28;20478;-76
2023/08/23 02:31:47;;;;;;;10.80;9.70;;;17.80;1.00;;;;;;5007282;28;20546;-77
2023/08/23 02:34:14;;;;;;;10.40;9.40;;;17.80;1.00;;;;;;5009035;28;20944;-76
2023/08/23 02:36:41;;;;;;;12.00;9.27;;;17.70;1.00;;;;;;5006941;28;20471;-78
2023/08/23 02:39:09;;;;;;;13.50;9.67;;;17.70;1.00;;;;;;5010792;28;20475;-76
2023/08/23 02:41:36;;;;;;;9.53;8.60;;;17.70;1.00;;;;;;5029163;28;20533;-77
2023/08/23 02:44:03;;;;;;;10.43;9.57;;;17.70;1.00;;;;;;5030983;28;20454;-75
2023/08/23 02:46:30;;;;;;;13.37;10.50;;;17.60;1.00;;;;;;5019963;28;20555;-76
2023/08/23 02:48:59;;;;;;;9.90;8.90;;;17.60;1.00;;;;;;5028823;28;20565;-79
2023/08/23 02:51:26;;;;;;;9.67;8.50;;;17.50;1.00;;;;;;5029184;28;20855;-77
2023/08/23 02:53:53;;;;;;;11.33;10.07;;;17.50;1.00;;;;;;5024945;28;20966;-76
2023/08/23 02:56:20;;;;;;;11.37;10.27;;;17.50;1.00;;;;;;5031696;28;20477;-77
2023/08/23 02:58:48;;;;;;;11.00;9.80;;;17.50;1.00;;;;;;5027853;28;20510;-77
2023/08/23 03:01:16;;;;;;;11.10;10.10;;;17.60;1.00;;;;;;5027610;28;20493;-76
2023/08/23 03:03:46;;;;;;;12.10;10.03;;;17.50;1.00;;;;;;5026386;28;20511;-76
2023/08/23 03:06:14;;;;;;;11.20;8.80;;;17.60;1.00;;;;;;5027416;28;20486;-80
2023/08/23 03:08:41;;;;;;;11.73;10.40;;;17.60;1.00;;;;;;5026514;28;20458;-77
2023/08/23 03:11:09;;;;;;;10.60;9.67;;;17.60;1.00;;;;;;5028261;28;20686;-75
2023/08/23 03:13:36;;;;;;;11.07;9.63;;;17.60;1.00;;;;;;5030232;28;20463;-77
2023/08/23 03:16:03;;;;;;;10.67;9.67;;;17.60;1.00;;;;;;5030532;28;22312;-77
2023/08/23 03:18:31;;;;;;;11.60;10.40;;;17.60;1.00;;;;;;5028342;28;20461;-79
2023/08/23 03:20:58;;;;;;;10.47;9.47;;;17.60;1.00;;;;;;5030278;28;20491;-77
2023/08/23 03:23:29;;;;;;;9.40;8.60;;;17.60;1.00;;;;;;5028787;28;20448;-78
2023/08/23 03:25:56;;;;;;;18.17;10.50;;;17.70;1.00;;;;;;5027369;28;20494;-76
2023/08/23 03:28:24;;;;;;;11.73;10.03;;;17.70;1.00;;;;;;5029462;28;20548;-77
2023/08/23 03:30:52;;;;;;;11.27;10.17;;;17.60;1.00;;;;;;5027527;28;20466;-76
2023/08/23 03:33:19;;;;;;;10.40;9.47;;;17.60;1.00;;;;;;5026947;28;20466;-78
2023/08/23 03:35:53;;;;;;;11.17;10.03;;;17.60;1.00;;;;;;5030595;28;20516;-77
2023/08/23 03:38:20;;;;;;;11.40;9.73;;;17.50;1.00;;;;;;5028524;28;20550;-76
2023/08/23 03:40:50;;;;;;;11.23;10.23;;;17.40;1.00;;;;;;5029866;28;20926;-76
2023/08/23 03:43:17;;;;;;;11.20;10.10;;;17.40;1.00;;;;;;5029745;28;20469;-75
2023/08/23 03:45:48;;;;;;;11.03;10.23;;;17.30;1.00;;;;;;5028849;28;20497;-76
2023/08/23 03:48:17;;;;;;;11.37;10.37;;;17.30;1.00;;;;;;5028466;28;21050;-76
2023/08/23 03:50:44;;;;;;;11.90;10.70;;;17.30;1.00;;;;;;5029848;28;20992;-76
2023/08/23 03:53:11;;;;;;;11.93;9.70;;;17.20;1.00;;;;;;5026329;28;20462;-78
2023/08/23 03:55:39;;;;;;;10.20;9.07;;;17.20;1.00;;;;;;5028197;28;20465;-80
2023/08/23 03:58:07;;;;;;;11.57;10.43;;;17.20;1.00;;;;;;5031011;28;20550;-77
2023/08/23 04:00:36;;;;;;;10.33;9.37;;;17.30;1.00;;;;;;5027158;28;20462;-77
2023/08/23 04:03:03;;;;;;;11.50;10.40;;;17.40;1.00;;;;;;5030550;28;20650;-76
2023/08/23 04:05:32;;;;;;;11.47;10.33;;;17.50;1.00;;;;;;5024443;28;20448;-76
2023/08/23 04:07:59;;;;;;;12.33;10.50;;;17.50;1.00;;;;;;5031340;28;20561;-76
2023/08/23 04:10:26;;;;;;;13.77;10.87;;;17.50;1.00;;;;;;5024454;28;20807;-77
2023/08/23 04:12:57;;;;;;;10.90;9.90;;;17.50;1.00;;;;;;5030558;28;20533;-77
2023/08/23 04:15:26;;;;;;;12.47;11.03;;;17.40;1.00;;;;;;5030273;28;20494;-77
2023/08/23 04:17:53;;;;;;;11.83;10.73;;;17.40;1.00;;;;;;5028502;28;20561;-78
2023/08/23 04:20:20;;;;;;;11.07;9.97;;;17.40;1.00;;;;;;5028087;28;21079;-74
2023/08/23 04:22:47;;;;;;;13.87;11.30;;;17.40;1.00;;;;;;5027974;28;21012;-79
2023/08/23 04:25:14;;;;;;;11.57;10.57;;;17.40;1.00;;;;;;5028248;28;20547;-77
2023/08/23 04:27:42;;;;;;;13.97;11.83;;;17.40;1.00;;;;;;5027905;28;20475;-76
2023/08/23 04:30:09;;;;;;;11.50;10.57;;;17.50;1.00;;;;;;5025799;28;20471;-77
2023/08/23 04:32:38;;;;;;;12.70;11.50;;;17.50;1.00;;;;;;5025105;28;20458;-76
2023/08/23 04:35:06;;;;;;;12.77;11.40;;;17.50;1.00;;;;;;5029616;28;20557;-76
2023/08/23 04:37:33;;;;;;;12.97;11.63;;;17.60;1.00;;;;;;5024459;28;20826;-76
2023/08/23 04:40:00;;;;;;;12.57;11.37;;;17.60;1.00;;;;;;5027752;28;21110;-77
2023/08/23 04:42:29;;;;;;;14.63;13.17;;;17.60;1.00;;;;;;5027835;28;20529;-77
2023/08/23 04:44:59;;;;;;;14.00;11.13;;;17.60;1.00;;;;;;5031766;28;20478;-76
2023/08/23 04:47:26;;;;;;;12.73;11.10;;;17.60;1.00;;;;;;5029722;28;20469;-76
2023/08/23 04:49:55;;;;;;;13.50;12.30;;;17.60;1.00;;;;;;5030427;28;20556;-77
2023/08/23 04:52:22;;;;;;;14.43;11.57;;;17.60;1.00;;;;;;5028317;28;20616;-77
2023/08/23 04:54:50;;;;;;;13.20;11.53;;;17.60;1.00;;;;;;5027681;28;20479;-75
2023/08/23 04:57:17;;;;;;;13.07;11.73;;;17.70;1.00;;;;;;5027883;28;20470;-78
2023/08/23 04:59:44;;;;;;;12.07;10.87;;;17.70;1.00;;;;;;5023519;28;20493;-77
2023/08/23 05:02:10;;;;;;;15.53;12.40;;;17.70;1.00;;;;;;5028216;28;20585;-78
2023/08/23 05:04:38;;;;;;;13.30;12.00;;;17.70;1.00;;;;;;5030176;28;20492;-78
2023/08/23 05:07:07;;;;;;;13.10;12.10;;;17.70;1.00;;;;;;5029669;28;20454;-76
2023/08/23 05:09:34;;;;;;;14.43;13.10;;;17.80;1.00;;;;;;5031229;28;20982;-77
2023/08/23 05:12:01;;;;;;;12.73;11.43;;;17.90;1.00;;;;;;5029209;28;20658;-77
2023/08/23 05:14:28;;;;;;;13.53;12.20;;;17.90;1.00;;;;;;5028606;28;20917;-78
2023/08/23 05:16:55;;;;;;;12.80;11.60;;;18.00;1.00;;;;;;5028874;28;20448;-76
2023/08/23 05:19:25;;;;;;;13.07;11.87;;;18.00;1.00;;;;;;5026412;28;20479;-77
2023/08/23 05:21:54;;;;;;;15.70;14.30;;;18.10;1.00;;;;;;5028779;28;20456;-77
2023/08/23 05:24:22;;;;;;;13.33;12.13;;;18.20;1.00;;;;;;5016108;28;20468;-76
2023/08/23 05:26:53;;;;;;;12.57;11.37;;;18.20;1.00;;;;;;5028328;28;20447;-77
2023/08/23 05:29:23;;;;;;;13.60;12.20;;;18.30;1.00;;;;;;5029022;28;20942;-78
2023/08/23 05:31:50;;;;;;;12.43;11.43;;;18.40;1.00;;;;;;5032618;28;21296;-77
2023/08/23 05:34:17;;;;;;;15.43;11.97;;;18.40;1.00;;;;;;5012413;28;20627;-76
2023/08/23 05:36:45;;;;;;;13.20;11.80;;;18.50;1.00;;;;;;5003416;28;20512;-76
2023/08/23 05:39:12;;;;;;;12.70;10.97;;;18.50;1.00;;;;;;5008166;28;20494;-77
2023/08/23 05:41:41;;;;;;;13.77;12.47;;;18.60;1.00;;;;;;5005728;28;20472;-76
2023/08/23 05:44:08;;;;;;;12.37;11.13;;;18.60;1.00;;;;;;5012211;28;20473;-78
2023/08/23 05:46:35;;;;;;;12.73;11.40;;;18.80;1.00;;;;;;5009348;28;20527;-77
2023/08/23 05:49:02;;;;;;;12.90;11.70;;;18.90;1.00;;;;;;5004972;28;20566;-77
2023/08/23 05:51:29;;;;;;;13.10;10.80;;;19.00;1.00;;;;;;5008236;28;20536;-77
2023/08/23 05:53:56;;;;;;;13.20;11.47;;;19.10;1.00;;;;;;5007451;28;20981;-76
2023/08/23 05:56:24;;;;;;;12.10;9.80;;;19.20;1.00;;;;;;5007376;28;20473;-77
2023/08/23 05:58:54;;;;;;;12.83;11.50;;;19.20;1.00;;;;;;5022752;28;20677;-77
2023/08/23 06:01:21;;;;;;;12.17;10.83;;;19.30;1.00;;;;;;5027345;28;20948;-79
2023/08/23 06:03:49;;;;;;;11.73;10.60;;;19.40;1.00;;;;;;5027052;28;20466;-76
2023/08/23 06:06:16;;;;;;;12.03;10.83;;;19.50;1.00;;;;;;5028364;28;20480;-76
2023/08/23 06:08:44;;;;;;;11.97;10.87;;;19.60;1.00;;;;;;5026420;28;20477;-77
2023/08/23 06:11:11;;;;;;;12.60;11.60;;;19.60;1.00;;;;;;5027524;28;20527;-78
2023/08/23 06:13:42;;;;;;;12.23;10.93;;;19.70;1.00;;;;;;5030063;28;20566;-76
2023/08/23 06:16:11;;;;;;;11.13;9.93;;;19.90;1.00;;;;;;5026344;28;20469;-76
2023/08/23 06:18:38;;;;;;;11.00;9.03;;;20.00;1.00;;;;;;5023897;28;20565;-78
2023/08/23 06:21:05;;;;;;;11.57;9.63;;;20.20;1.00;;;;;;5026292;28;20521;-76
2023/08/23 06:23:32;;;;;;;11.30;9.23;;;20.30;1.00;;;;;;5027716;28;20568;-76
2023/08/23 06:25:59;;;;;;;10.10;9.20;;;20.40;1.00;;;;;;5023049;28;20624;-76
2023/08/23 06:28:27;;;;;;;10.40;9.43;;;20.50;1.00;;;;;;5027880;28;20511;-78
2023/08/23 06:30:58;;;;;;;11.00;9.90;;;20.60;1.00;;;;;;5024870;28;20572;-77
2023/08/23 06:33:27;;;;;;;15.43;11.00;;;20.70;1.00;;;;;;5027131;28;20467;-78
2023/08/23 06:35:54;;;;;;;10.33;9.23;;;20.80;1.00;;;;;;5027851;28;20471;-77
2023/08/23 06:38:21;;;;;;;11.97;9.77;;;20.90;1.00;;;;;;5026461;28;21014;-76
2023/08/23 06:40:48;;;;;;;11.00;10.20;;;21.00;1.00;;;;;;5028733;28;20449;-77
2023/08/23 06:43:19;;;;;;;10.37;8.63;;;21.10;1.00;;;;;;5020103;28;20990;-79
2023/08/23 06:45:47;;;;;;;11.17;9.90;;;21.10;1.00;;;;;;5012890;28;20496;-77
2023/08/23 06:48:14;;;;;;;12.47;10.93;;;21.20;1.00;;;;;;5026117;28;20467;-79
2023/08/23 06:50:43;;;;;;;10.10;8.83;;;21.20;1.00;;;;;;5026256;28;20476;-78
2023/08/23 06:53:12;;;;;;;10.40;9.30;;;21.30;1.00;;;;;;5026719;28;20460;-80
2023/08/23 06:55:42;;;;;;;12.67;9.20;;;21.40;1.00;;;;;;5025099;28;20881;-76
2023/08/23 06:58:09;;;;;;;9.60;8.60;;;21.50;1.00;;;;;;5026410;28;20476;-77
2023/08/23 07:00:37;;;;;;;9.40;8.30;;;21.60;1.00;;;;;;5029915;28;20974;-77
2023/08/23 07:03:04;;;;;;;9.40;8.60;;;21.80;1.00;;;;;;5030980;28;21073;-78
2023/08/23 07:05:34;;;;;;;9.20;8.33;;;21.80;1.00;;;;;;5026881;28;20469;-75
2023/08/23 07:08:05;;;;;;;9.20;8.30;;;21.90;1.00;;;;;;5028511;28;20551;-76
2023/08/23 07:10:32;;;;;;;9.80;8.30;;;21.90;1.00;;;;;;5024404;28;20551;-76
2023/08/23 07:13:00;;;;;;;12.17;8.80;;;22.00;1.00;;;;;;5028570;28;20666;-77
2023/08/23 07:15:27;;;;;;;8.20;7.03;;;22.10;1.00;;;;;;5028445;28;20469;-78
2023/08/23 07:17:54;;;;;;;8.30;7.60;;;22.20;1.00;;;;;;5029682;28;21058;-77
2023/08/23 07:20:24;;;;;;;8.33;7.53;;;22.20;1.00;;;;;;5030406;28;20474;-76
2023/08/23 07:22:52;;;;;;;9.33;7.90;;;22.30;1.00;;;;;;5029941;28;20512;-76
2023/08/23 07:25:25;;;;;;;8.37;7.67;;;22.40;1.00;;;;;;5022883;28;20468;-78
2023/08/23 07:27:52;;;;;;;9.53;7.60;;;22.40;1.00;;;;;;5030575;28;20573;-76
2023/08/23 07:30:22;;;;;;;8.53;7.40;;;22.50;1.00;;;;;;5029509;28;20827;-76
2023/08/23 07:32:49;;;;;;;9.30;7.40;;;22.50;1.00;;;;;;5026319;28;20567;-77
2023/08/23 07:35:17;;;;;;;7.67;6.60;;;22.60;1.00;;;;;;5029520;28;20946;-78
2023/08/23 07:37:46;;;;;;;10.83;9.07;;;22.80;1.00;;;;;;5026871;28;20954;-76
2023/08/23 07:40:13;;;;;;;7.40;6.80;;;23.00;1.00;;;;;;5008016;28;20452;-76
2023/08/23 07:42:42;;;;;;;10.60;6.93;;;23.10;1.00;;;;;;5006938;28;20546;-76
2023/08/23 07:45:10;;;;;;;7.83;6.77;;;23.20;1.00;;;;;;5010476;28;20435;-75
2023/08/23 07:47:45;;;;;;;7.90;6.13;;;23.30;1.00;;;;;;5010332;28;20484;-77
2023/08/23 07:50:13;;;;;;;6.67;5.93;;;23.40;1.00;;;;;;5011011;28;20539;-76
2023/08/23 07:52:40;;;;;;;6.13;5.57;;;23.70;1.00;;;;;;5007003;28;20500;-76
2023/08/23 07:55:08;;;;;;;5.47;5.07;;;23.70;1.00;;;;;;5011678;28;20539;-76
2023/08/23 07:57:35;;;;;;;5.80;5.33;;;24.00;1.00;;;;;;5030206;28;20504;-77
2023/08/23 08:00:04;;;;;;;6.33;5.20;;;24.20;1.00;;;;;;5015654;28;20489;-76
2023/08/23 08:02:31;;;;;;;5.37;4.80;;;24.30;1.00;;;;;;5021549;28;20478;-77
2023/08/23 08:04:58;;;;;;;6.67;5.37;;;24.30;1.00;;;;;;5029518;28;20468;-76
2023/08/23 08:07:28;;;;;;;7.47;5.30;;;24.30;1.00;;;;;;5031299;28;20474;-78
2023/08/23 08:09:55;;;;;;;5.80;5.00;;;24.40;1.00;;;;;;5029621;28;20791;-76
2023/08/23 08:12:23;;;;;;;5.30;4.13;;;24.70;1.00;;;;;;5029117;28;20539;-77
2023/08/23 08:14:52;;;;;;;5.63;4.33;;;24.80;1.00;;;;;;5030883;28;20446;-77
2023/08/23 08:17:21;;;;;;;5.07;3.70;;;24.90;1.00;;;;;;5030238;28;20533;-76
2023/08/23 08:19:48;;;;;;;7.00;4.33;;;24.90;1.00;;;;;;5032554;28;20456;-76
2023/08/23 08:22:16;;;;;;;4.67;3.70;;;25.00;1.00;;;;;;5033181;28;20524;-76
2023/08/23 08:24:44;;;;;;;3.47;3.17;;;25.10;1.00;;;;;;5032980;28;20470;-78
2023/08/23 08:27:10;;;;;;;3.83;3.43;;;25.10;1.00;;;;;;5034451;28;20609;-79
2023/08/23 08:29:38;;;;;;;3.87;3.50;;;25.10;1.00;;;;;;5031335;28;20850;-79
2023/08/23 08:32:05;;;;;;;5.60;4.30;;;25.20;1.00;;;;;;5032646;28;20599;-76
2023/08/23 08:34:34;;;;;;;4.10;3.80;;;25.30;1.00;;;;;;5033855;28;20552;-76
2023/08/23 08:37:01;;;;;;;5.53;3.77;;;25.30;1.00;;;;;;5033955;28;20467;-76
2023/08/23 08:39:28;;;;;;;3.87;3.57;;;25.40;1.00;;;;;;5031669;28;20546;-76
2023/08/23 08:41:58;;;;;;;4.00;3.60;;;25.60;1.00;;;;;;5029098;28;20497;-77
2023/08/23 08:44:25;;;;;;;5.23;3.93;;;25.70;1.00;;;;;;5032047;28;20462;-77
2023/08/23 08:46:52;;;;;;;5.80;4.27;;;25.70;1.00;;;;;;5031021;28;20478;-77
2023/08/23 08:49:20;;;;;;;5.50;4.00;;;25.80;1.00;;;;;;5023106;28;20469;-78
2023/08/23 08:51:49;;;;;;;6.27;4.50;;;25.90;1.00;;;;;;5031539;28;20579;-76
2023/08/23 08:54:17;;;;;;;5.67;5.17;;;26.00;1.00;;;;;;5031679;28;20544;-77
2023/08/23 08:56:47;;;;;;;6.37;5.87;;;26.10;1.00;;;;;;5032056;28;20483;-76
2023/08/23 08:59:16;;;;;;;5.80;5.00;;;26.30;1.00;;;;;;5029138;28;20530;-75
2023/08/23 09:01:45;;;;;;;5.50;5.00;;;26.50;1.00;;;;;;5032255;28;20478;-78
2023/08/23 09:04:12;;;;;;;5.40;5.00;;;26.70;1.00;;;;;;5029032;28;20579;-75
2023/08/23 09:06:41;;;;;;;5.07;4.57;;;26.70;1.00;;;;;;5024312;28;20576;-78
2023/08/23 09:09:09;;;;;;;5.50;5.00;;;26.90;1.00;;;;;;5016626;28;20487;-78
2023/08/23 09:11:36;;;;;;;5.03;4.73;;;27.00;1.00;;;;;;5029961;28;20483;-78
2023/08/23 09:14:14;;;;;;;4.80;4.23;;;26.90;1.00;;;;;;5023410;28;20505;-76
2023/08/23 09:16:41;;;;;;;5.17;4.67;;;27.10;1.00;;;;;;5028971;28;20472;-76
2023/08/23 09:19:10;;;;;;;5.20;4.27;;;27.20;1.00;;;;;;5023797;28;21086;-76
2023/08/23 09:21:37;;;;;;;4.30;4.00;;;27.20;1.00;;;;;;5036917;28;20548;-79
2023/08/23 09:24:05;;;;;;;5.53;4.30;;;27.40;1.00;;;;;;5032191;28;20461;-76
2023/08/23 09:26:33;;;;;;;4.20;3.90;;;27.60;1.00;;;;;;5029397;28;20535;-77
2023/08/23 09:29:02;;;;;;;4.07;3.67;;;28.10;1.00;;;;;;5028638;28;20467;-76
2023/08/23 09:31:30;;;;;;;4.97;3.30;;;28.70;1.00;;;;;;5016742;28;20974;-75
2023/08/23 09:33:58;;;;;;;7.33;4.50;;;28.90;1.00;;;;;;5014616;28;20567;-76
2023/08/23 09:36:27;;;;;;;5.10;3.73;;;28.90;1.00;;;;;;5022342;28;20574;-77
2023/08/23 09:38:54;;;;;;;3.97;3.43;;;30.10;1.00;;;;;;5017509;28;20636;-78
2023/08/23 09:41:22;;;;;;;7.53;3.77;;;30.60;1.00;;;;;;5025948;28;21141;-76
2023/08/23 09:43:55;;;;;;;3.40;3.10;;;31.00;1.00;;;;;;5028303;28;20987;-75
2023/08/23 09:46:26;;;;;;;4.63;2.90;;;32.20;1.00;;;;;;5030292;28;20477;-76
2023/08/23 09:48:54;;;;;;;3.60;3.23;;;33.60;1.00;;;;;;5019046;28;20896;-76
2023/08/23 09:51:24;;;;;;;3.80;3.40;;;33.80;1.00;;;;;;5027107;28;20647;-76
2023/08/23 09:53:57;;;;;;;6.43;3.93;;;32.80;1.00;;;;;;5007303;28;20455;-77
2023/08/23 09:56:24;;;;;;;4.00;2.93;;;32.50;1.00;;;;;;5023736;28;20497;-75
2023/08/23 09:58:54;;;;;;;3.93;3.20;;;33.40;1.00;;;;;;5019778;28;20540;-76
2023/08/23 10:01:25;;;;;;;5.83;3.50;;;33.80;1.00;;;;;;5020343;28;20477;-75
2023/08/23 10:03:52;;;;;;;4.20;3.80;;;34.10;1.00;;;;;;5006697;28;20450;-77
2023/08/23 10:06:21;;;;;;;18.93;17.30;;;33.80;1.00;;;;;;5022047;28;20673;-77
2023/08/23 10:08:48;;;;;;;3.13;2.50;;;33.70;1.00;;;;;;5026974;28;20658;-76
2023/08/23 10:11:17;;;;;;;3.27;2.97;;;33.30;1.00;;;;;;5028261;28;20468;-77
2023/08/23 10:13:44;;;;;;;3.70;3.37;;;33.00;1.00;;;;;;5028768;28;20465;-77
2023/08/23 10:16:16;;;;;;;3.70;3.40;;;32.30;1.00;;;;;;5029092;28;20992;-77
2023/08/23 10:18:45;;;;;;;4.63;3.40;;;31.80;1.00;;;;;;5026312;28;20529;-77
2023/08/23 10:21:13;;;;;;;2.90;2.70;;;32.70;1.00;;;;;;5018318;28;20542;-77
2023/08/23 10:23:42;;;;;;;4.30;2.60;;;33.90;1.00;;;;;;5018490;28;20517;-78
2023/08/23 10:26:18;;;;;;;4.90;2.87;;;34.60;1.00;;;;;;5027176;28;20860;-77
2023/08/23 10:28:49;;;;;;;5.00;2.83;;;35.40;1.00;;;;;;5028560;28;20520;-76
2023/08/23 10:31:23;;;;;;;2.90;2.60;;;35.00;1.00;;;;;;5029756;28;21007;-76
2023/08/23 10:33:55;;;;;;;3.53;3.17;;;34.40;1.00;;;;;;5028256;28;20936;-77
2023/08/23 10:36:24;;;;;;;4.03;2.77;;;34.90;1.00;;;;;;5029757;28;20487;-76
2023/08/23 10:38:51;;;;;;;2.40;2.07;;;36.10;1.00;;;;;;5028595;28;21210;-77
2023/08/23 10:41:19;;;;;;;3.43;2.60;;;36.60;1.00;;;;;;5027895;28;20465;-79
2023/08/23 10:43:47;;;;;;;2.47;2.27;;;37.50;1.00;;;;;;5029998;28;20902;-76
2023/08/23 10:46:19;;;;;;;3.30;2.97;;;37.80;1.00;;;;;;5033830;28;20489;-78
2023/08/23 10:48:47;;;;;;;4.53;3.43;;;38.30;1.00;;;;;;5031176;28;20544;-76
2023/08/23 10:51:14;;;;;;;3.07;2.33;;;38.90;1.00;;;;;;5033171;28;20457;-78
2023/08/23 10:53:42;;;;;;;4.40;1.60;;;38.80;1.00;;;;;;5027118;28;21080;-77
2023/08/23 10:56:10;;;;;;;7.80;2.80;;;37.60;1.00;;;;;;5027459;28;20571;-75
2023/08/23 10:58:38;;;;;;;2.57;2.30;;;36.60;1.00;;;;;;5029938;28;20552;-76
2023/08/23 11:01:05;;;;;;;2.33;1.90;;;36.00;1.00;;;;;;5029156;28;20486;-75
2023/08/23 11:03:34;;;;;;;3.47;2.37;;;36.00;1.00;;;;;;5031642;28;20545;-76
2023/08/23 11:06:01;;;;;;;3.37;1.70;;;36.70;1.00;;;;;;5027690;28;20481;-76
2023/08/23 11:08:30;;;;;;;2.90;1.80;;;37.50;1.00;;;;;;5029430;28;20480;-77
2023/08/23 11:10:58;;;;;;;1.63;1.53;;;38.10;1.00;;;;;;5032284;28;20871;-77
2023/08/23 11:13:25;;;;;;;1.77;1.60;;;38.90;1.00;;;;;;5029803;28;20469;-77
2023/08/23 11:15:52;;;;;;;3.03;1.73;;;39.30;1.00;;;;;;5031348;28;20465;-76
2023/08/23 11:18:20;;;;;;;2.57;1.60;;;39.40;1.00;;;;;;5029213;28;20457;-78
2023/08/23 11:20:48;;;;;;;2.80;1.70;;;39.80;1.00;;;;;;5030450;28;20488;-77
2023/08/23 11:23:18;;;;;;;2.23;1.10;;;40.10;1.00;;;;;;5031727;28;20661;-75
2023/08/23 11:25:48;;;;;;;2.53;2.10;;;40.20;1.00;;;;;;5029402;28;26110;-76
2023/08/23 11:28:17;;;;;;;1.93;1.60;;;40.60;1.00;;;;;;5029205;28;20457;-75
2023/08/23 11:30:44;;;;;;;3.30;2.20;;;40.90;1.00;;;;;;5031502;28;20964;-77
2023/08/23 11:33:11;;;;;;;2.17;1.90;;;40.90;1.00;;;;;;5026842;28;20472;-77
2023/08/23 11:35:41;;;;;;;4.23;2.10;;;41.50;1.00;;;;;;5029205;28;20487;-78
2023/08/23 11:38:10;;;;;;;2.20;1.87;;;41.80;1.00;;;;;;5030966;28;20437;-77
2023/08/23 11:40:37;;;;;;;5.00;2.07;;;41.80;1.00;;;;;;5028829;28;20465;-77
2023/08/23 11:43:07;;;;;;;3.03;2.30;;;42.10;1.00;;;;;;5030722;28;20473;-81
2023/08/23 11:45:41;;;;;;;3.00;2.43;;;42.20;1.00;;;;;;5028320;28;20480;-77
2023/08/23 11:48:08;;;;;;;3.53;2.53;;;42.50;1.00;;;;;;5028330;28;20455;-77
2023/08/23 11:50:35;;;;;;;2.30;2.10;;;43.10;1.00;;;;;;5039096;28;20555;-77
2023/08/23 11:53:04;;;;;;;2.60;2.13;;;43.00;1.00;;;;;;5034387;28;20492;-77
2023/08/23 11:55:34;;;;;;;2.23;1.97;;;43.50;1.00;;;;;;5037388;28;20522;-77
2023/08/23 11:58:04;;;;;;;2.10;1.90;;;44.00;1.00;;;;;;5034665;28;20536;-78
2023/08/23 12:00:33;;;;;;;4.73;3.20;;;44.50;1.00;;;;;;5035090;28;20540;-78
2023/08/23 12:03:00;;;;;;;1.80;1.70;;;44.90;1.00;;;;;;5038993;28;20457;-76
2023/08/23 12:05:27;;;;;;;2.90;1.47;;;45.10;1.00;;;;;;5038547;28;20480;-77
2023/08/23 12:07:54;;;;;;;1.10;1.00;;;45.20;1.00;;;;;;5035421;28;20460;-77
2023/08/23 12:10:21;;;;;;;1.30;1.20;;;45.00;1.00;;;;;;5037227;28;20942;-77
2023/08/23 12:12:51;;;;;;;2.27;1.53;;;44.50;1.00;;;;;;5025345;28;20449;-77
2023/08/23 12:15:19;;;;;;;3.17;1.23;;;44.20;1.00;;;;;;5036951;28;20509;-77
2023/08/23 12:17:49;;;;;;;1.60;1.50;;;44.30;1.00;;;;;;5034473;28;20468;-77
2023/08/23 12:20:17;;;;;;;1.57;1.40;;;43.90;1.00;;;;;;5027505;28;20513;-78
2023/08/23 12:22:46;;;;;;;2.30;1.60;;;43.50;1.00;;;;;;5025561;28;20476;-76
2023/08/23 12:25:14;;;;;;;4.77;2.40;;;43.30;1.00;;;;;;5036859;28;20468;-77
2023/08/23 12:27:42;;;;;;;4.77;2.13;;;42.30;1.00;;;;;;5039310;28;20512;-76
2023/08/23 12:30:11;;;;;;;3.30;1.80;;;41.10;1.00;;;;;;5034188;28;20565;-76
2023/08/23 12:32:39;;;;;;;2.43;1.90;;;40.00;1.00;;;;;;5031594;28;20516;-76
2023/08/23 12:35:08;;;;;;;1.90;1.70;;;40.10;1.00;;;;;;5032412;28;20500;-75
2023/08/23 12:37:36;;;;;;;1.80;1.70;;;40.80;1.00;;;;;;5033216;28;20472;-75
2023/08/23 12:40:07;;;;;;;1.70;1.60;;;41.60;1.00;;;;;;5039761;28;20472;-75
2023/08/23 12:42:34;;;;;;;3.53;2.13;;;42.40;1.00;;;;;;5038753;28;20507;-77
2023/08/23 12:45:03;;;;;;;3.07;2.03;;;40.90;1.00;;;;;;5036579;28;20571;-76
2023/08/23 12:47:33;;;;;;;3.73;2.23;;;39.80;1.00;;;;;;5033388;28;20948;-77
2023/08/23 12:50:02;;;;;;;3.33;2.73;;;39.90;1.00;;;;;;5036176;28;20909;-78
2023/08/23 12:52:29;;;;;;;2.50;2.30;;;40.90;1.00;;;;;;5033463;28;20456;-78
2023/08/23 12:54:57;;;;;;;2.23;1.70;;;41.90;1.00;;;;;;5034315;28;20472;-77